Terminal Aerodrome Forecast
Issued by NWS

Home | Current Version | Previous Version | Text Only | Print | Product List | Glossary On
Versions: 1 2 3 4 5 6 7 8 9 10 11 12 13 14 15
000
FTUS44 KCRP 220500
TAFLRD
TAF
KLRD 220529Z 2206/2306 12012G18KT P6SM SKC
     FM220700 14008KT P6SM SCT015
     FM222200 13012G18KT P6SM FEW060=

USA.gov is the U.S. government's official web portal to all federal, state and local government web resources and services.